»·PEaware :: UAL501 KSNA-KSFO

UAL501 :: KSNA-KSFO

FLIGHT INFORMATION

Flight Status: Arrived
Operator:
United Airlines
More flights by this operator :: More flights under this callsign
Pilot: William B. (10095)
Aircraft: BOEING 737-700
(B737)
More flights by this aircraft type
Origin: KSNA John Wayne-Orange Co
United States
Destination: KSFO San Francisco Intl
United States
More flights between these airports :: More routes between these airports
Route: +CHANL3 RZS SERFR WWAVS1
File this flight plan on PilotEdge
Remarks: P3d V3.4 PMDG 737NGX
Altitude:
(Current/Filed)
34,000ft
Speed:
(Current/Filed)
320kts
Departed: 09-Feb-17 01:16 PM
Arrived: 09-Feb-17 02:29 PM
Distance/Time
Traveled:
323nm/1:13
Distance/Time
To Go:
Arrived

Flight Plot

Page will automatically refresh every two minutes.


Map Options




Map Legend


Flown Route
Filed Route
Departure Airport
Arrival Airport
Navaid (VOR, NDB)
Fix

Horizontal Profiles

Position Reports

Time Latitude Longitude Heading Altitude Ground
Speed
09-Feb-17 13:01 33.680290 -117.861672 116 63ft 0kts
09-Feb-17 13:02 33.680290 -117.861672 116 63ft 0kts
09-Feb-17 13:03 33.680290 -117.861672 116 63ft 0kts
09-Feb-17 13:04 33.680290 -117.861672 116 63ft 0kts
09-Feb-17 13:05 33.680290 -117.861672 116 63ft 0kts
09-Feb-17 13:06 33.680290 -117.861672 116 63ft 0kts
09-Feb-17 13:07 33.680290 -117.861672 116 63ft 0kts
09-Feb-17 13:08 33.680290 -117.861672 116 63ft 0kts
09-Feb-17 13:10 33.680290 -117.861672 116 63ft 0kts
09-Feb-17 13:11 33.680617 -117.862141 162 63ft 2kts
09-Feb-17 13:12 33.680793 -117.862146 207 63ft 0kts
09-Feb-17 13:13 33.680793 -117.862146 207 63ft 0kts
09-Feb-17 13:14 33.680681 -117.862215 207 63ft 0kts
09-Feb-17 13:15 33.680781 -117.863450 297 63ft 15kts
09-Feb-17 13:16 33.663675 -117.876515 208 310ft 165kts
09-Feb-17 13:17 33.619565 -117.900722 193 3070ft 186kts
09-Feb-17 13:18 33.570968 -117.924082 205 6036ft 190kts
09-Feb-17 13:19 33.525177 -117.954578 212 8908ft 184kts
09-Feb-17 13:20 33.481261 -117.994379 240 11180ft 218kts
09-Feb-17 13:21 33.461051 -118.072946 251 13168ft 275kts
09-Feb-17 13:22 33.438721 -118.163311 255 14307ft 283kts
09-Feb-17 13:23 33.473581 -118.250603 303 16327ft 324kts
09-Feb-17 13:24 33.535364 -118.339547 304 18350ft 369kts
09-Feb-17 13:25 33.601261 -118.434760 304 21560ft 367kts
09-Feb-17 13:26 33.665070 -118.527662 303 24949ft 351kts
09-Feb-17 13:27 33.725331 -118.614569 302 28331ft 321kts
09-Feb-17 13:28 33.779361 -118.694663 302 31062ft 296kts
09-Feb-17 13:29 33.828896 -118.767832 294 33194ft 267kts
09-Feb-17 13:30 33.876618 -118.837178 301 34146ft 278kts
09-Feb-17 13:31 33.929782 -118.913321 301 34161ft 317kts
09-Feb-17 13:32 33.988578 -118.998784 302 34172ft 359kts
09-Feb-17 13:33 34.055282 -119.096462 302 34153ft 396kts
09-Feb-17 13:34 34.127749 -119.203084 302 34145ft 425kts
09-Feb-17 13:35 34.205027 -119.317024 302 34128ft 448kts
09-Feb-17 13:36 34.283796 -119.434065 302 34124ft 449kts
09-Feb-17 13:37 34.362393 -119.551228 302 34126ft 449kts
09-Feb-17 13:38 34.441339 -119.668744 301 34123ft 448kts
09-Feb-17 13:39 34.522644 -119.783315 310 34121ft 457kts
09-Feb-17 13:40 34.620950 -119.882563 312 34124ft 461kts
09-Feb-17 13:41 34.720096 -119.981947 312 34120ft 461kts
09-Feb-17 13:42 34.818977 -120.081432 312 34125ft 462kts
09-Feb-17 13:43 34.917949 -120.180777 310 34140ft 460kts
09-Feb-17 13:44 35.016287 -120.280461 312 34141ft 462kts
09-Feb-17 13:45 35.115564 -120.380622 312 34147ft 462kts
09-Feb-17 13:46 35.214277 -120.480730 311 34141ft 461kts
09-Feb-17 13:47 35.312279 -120.581432 311 34139ft 461kts
09-Feb-17 13:48 35.410764 -120.682902 310 34138ft 461kts
09-Feb-17 13:49 35.509201 -120.783876 310 34134ft 460kts
09-Feb-17 13:50 35.607505 -120.884974 310 34124ft 461kts
09-Feb-17 13:51 35.705354 -120.986567 310 34106ft 461kts
09-Feb-17 13:52 35.803955 -121.088264 310 34109ft 461kts
09-Feb-17 13:53 35.901688 -121.190184 310 34097ft 460kts
09-Feb-17 13:54 35.999371 -121.292252 310 34090ft 461kts
09-Feb-17 13:55 36.100352 -121.390599 317 34081ft 472kts
09-Feb-17 13:56 36.212163 -121.477270 317 33898ft 468kts
09-Feb-17 13:57 36.318819 -121.560452 317 31505ft 441kts
09-Feb-17 13:58 36.421974 -121.641360 316 29008ft 427kts
09-Feb-17 13:59 36.519128 -121.717563 317 26509ft 401kts
09-Feb-17 14:00 36.612721 -121.791629 318 24008ft 395kts
09-Feb-17 14:01 36.703522 -121.864294 317 21509ft 384kts
09-Feb-17 14:02 36.786707 -121.941347 308 19011ft 362kts
09-Feb-17 14:03 36.863712 -122.022533 309 16128ft 372kts
09-Feb-17 14:04 36.944136 -122.106868 310 13120ft 374kts
09-Feb-17 14:05 37.018823 -122.185770 309 11372ft 317kts
09-Feb-17 14:06 37.083116 -122.254088 309 11051ft 296kts
09-Feb-17 14:07 37.155709 -122.308545 335 9732ft 312kts
09-Feb-17 14:08 37.238412 -122.334420 337 9125ft 306kts
09-Feb-17 14:09 37.319046 -122.361403 338 8525ft 296kts
09-Feb-17 14:10 37.398770 -122.388441 338 8008ft 292kts
09-Feb-17 14:11 37.471452 -122.413664 337 8011ft 292kts
09-Feb-17 14:12 37.515879 -122.428944 337 8009ft 292kts
09-Feb-17 14:13 37.593314 -122.455651 338 6753ft 275kts
09-Feb-17 14:14 37.663518 -122.477255 355 5898ft 256kts
09-Feb-17 14:15 37.734187 -122.455841 16 5688ft 262kts
09-Feb-17 14:16 37.804654 -122.428976 14 5680ft 262kts
09-Feb-17 14:17 37.874419 -122.402821 14 5679ft 263kts
09-Feb-17 14:18 37.937305 -122.361165 75 4365ft 255kts
09-Feb-17 14:19 37.920047 -122.288981 124 3964ft 208kts
09-Feb-17 14:20 37.893284 -122.224805 139 3964ft 204kts
09-Feb-17 14:21 37.842440 -122.211442 202 3519ft 180kts
09-Feb-17 14:22 37.805231 -122.248853 204 2730ft 149kts
09-Feb-17 14:23 37.769114 -122.273074 202 2786ft 147kts
09-Feb-17 14:24 37.732984 -122.297086 203 2401ft 139kts
09-Feb-17 14:25 37.700252 -122.318780 202 1684ft 124kts
09-Feb-17 14:26 37.671444 -122.337714 202 1027ft 116kts
09-Feb-17 14:27 37.642573 -122.357010 203 355ft 118kts
09-Feb-17 14:28 37.614497 -122.375505 211 21ft 92kts
09-Feb-17 14:29 37.608507 -122.381271 297 21ft 21kts

Navigation Log

Ident Type
Flight plan parsing failed, navigation log unavailable